Mijn Webcam Meer informatie Mijn Webcam


webcam facing north-east Meer informatie webcam facing north-east


Regen radar Meer informatie rain snow radar


Bezoek onze andere website:

Template documentation
and downloads

And another site


CBI



METAR rapporten vliegvelden

   
EHGG - Groningen/Eelde
Gewijzigd: 28-06-2017 01:55
Bewolking  
Bewolking  
   Wind: ONO 4,6 m/s
Wind: ONO 4,6 m/s
Temperatuur: 15°C
Dauwpunt: 14°C
Vochtigheid: 94%
Barometer: 1004 hPa
Bewolking: Bewolking
Zicht: 9 km
Bewolking: Bewolking 1341,1 m
EHGG 272355Z AUTO 07009KT 040V100 9000 OVC044 15/14 Q1004 REDZ
EHMA - Schiermonnikoog
Gewijzigd: 28-06-2017 01:55
Gedeeltelijk bewolkt  
Gedeeltelijk bewolkt  
   Wind: Oosten 7,2 m/s
Wind: Oosten 7,2 m/s
Temperatuur: 17°C
Dauwpunt: 14°C
Vochtigheid: 83%
Barometer: 1004 hPa
Bewolking: Gedeeltelijk bewolkt
Zicht: More then 10 km
Bewolking: Gedeeltelijk bewolkt
EHMA 272355Z AUTO 10014KT 030V140 9999 NSC 17/14 Q1004
EHMG - Terschelling
Gewijzigd: 28-06-2017 01:55
Gedeeltelijk bewolkt  
Gedeeltelijk bewolkt  
   Wind: Oosten 14,9 m/s
Wind: Oosten 14,9 m/s
Temperatuur: 16°C
Dauwpunt: 13°C
Vochtigheid: 83%
Barometer: 1003 hPa
Bewolking: Gedeeltelijk bewolkt
Zicht: More then 10 km
Bewolking: Gedeeltelijk bewolkt
EHMG 272355Z AUTO 08029KT 9999 NSC 16/13 Q1003
EHVL - Vlieland
Gewijzigd: 28-06-2017 01:55
Bewolking  
Bewolking  
   Wind: Oosten 9,8 m/s
Wind: Oosten 9,8 m/s
Temperatuur: 17°C
Dauwpunt: 13°C
Vochtigheid: 77%
Barometer: 1003 hPa
Bewolking: Bewolking
Zicht: More then 10 km
Bewolking: Bewolking 1371,6 m
EHVL 272355Z AUTO 08019KT 9999 OVC045 17/13 Q1003 BLU
ETWM - Meppen, Germany
Gewijzigd: 28-06-2017 01:20
  
  
   Wind: NO 2,1 m/s
Wind: NO 2,1 m/s
Temperatuur: 16°C
Dauwpunt: 14°C
Vochtigheid: 88%
Barometer: 1004 hPa
Zicht: More then 10 km
ETWM 272320Z AUTO 05004KT 9999 // ////// 16/14 Q1004 ///
 

Script ontwikkeld door  Saratoga-weather.org Aangepast voor de template door  Weerstation Leuven

U vindt ons ook hier:

Het Weer Aktueel

UK Metoffice

European Weather Network

WeatherCloud

Weather Underground

Benelux Weer Netwerk

AWEKAS

WeatherlinkIP

HAMweather, WeatherForYou, PWS Weather

Apparatuur in gebruik:

Weerstation
Davis VP2 Plus

Weerprogramma
Cumulus

Weercomputer
ASUS Eee Box B202

Webleverancier
Antagonist

Davis VP2 Plus

Cumulus

ASUS Eee Box B202

Antagonist